SLH weather

Sola Airport
Sola, Torba, Vanuatu

Public forecast

Using degrees Celsius for public forecast. Weather courtesy of forecast.io.

Current aviation weather report (METAR) for Sola Airport

Report is more than 2 hours old.

Retrieved 2019/12/15 18:00 UTC (3 hours ago):

NVSC 151800Z AUTO 01001KT //// // NCD

Aviation forecast (TAF) for Sola Airport

Retrieved 2019/12/15 18:06 UTC (3 hours ago):

TAF NVSC 151600Z 1518/1618 VRB02KT 9999 SCT020